createdAt,value
2019-03-22T00:00:40.741Z,38.95
2019-03-22T00:03:10.512Z,41.95
2019-03-22T00:05:40.338Z,45.17
2019-03-22T00:08:10.102Z,44.05
2019-03-22T00:10:39.834Z,48.40
2019-03-22T00:13:09.578Z,43.23
2019-03-22T00:15:39.317Z,36.13
2019-03-22T00:18:09.046Z,42.33
2019-03-22T00:20:38.826Z,40.10
2019-03-22T00:23:08.555Z,42.17
2019-03-22T00:25:38.299Z,39.75
2019-03-22T00:28:09.059Z,37.20
2019-03-22T00:30:38.786Z,38.33
2019-03-22T00:33:08.587Z,37.95
2019-03-22T00:35:38.324Z,37.17
2019-03-22T00:38:08.094Z,36.13
2019-03-22T00:40:37.827Z,35.83
2019-03-22T00:43:07.562Z,37.48
2019-03-22T00:45:37.299Z,36.75
2019-03-22T00:48:07.032Z,38.33
2019-03-22T00:50:36.827Z,43.33
2019-03-22T00:53:06.556Z,36.00
2019-03-22T00:55:36.290Z,36.55
2019-03-22T00:58:06.027Z,36.42
2019-03-22T01:00:35.785Z,40.67
2019-03-22T01:03:05.609Z,47.38
2019-03-22T01:05:35.350Z,51.02
2019-03-22T01:08:06.030Z,43.68
2019-03-22T01:10:35.789Z,44.13
2019-03-22T01:13:06.552Z,46.98
2019-03-22T01:15:36.282Z,65.52
2019-03-22T01:18:06.398Z,58.05
2019-03-22T01:20:36.118Z,68.25
2019-03-22T01:23:05.907Z,70.05
2019-03-22T01:25:35.634Z,69.22
2019-03-22T01:28:05.387Z,71.67
2019-03-22T01:30:35.144Z,73.92
2019-03-22T01:33:04.966Z,70.42
2019-03-22T08:23:22.872Z,91.67
2019-03-22T08:50:42.709Z,68.87
2019-03-22T08:53:12.477Z,84.87
2019-03-22T08:55:42.189Z,71.25
2019-03-22T08:58:11.962Z,80.47
2019-03-22T09:00:41.816Z,73.80
2019-03-22T09:03:11.599Z,71.60
2019-03-22T09:05:41.296Z,72.53
2019-03-22T09:08:11.018Z,73.12
2019-03-22T09:10:40.830Z,73.67
2019-03-22T09:13:10.640Z,73.40
2019-03-22T09:15:41.358Z,70.93
2019-03-22T09:18:11.526Z,64.22
2019-03-22T09:20:41.416Z,61.42
2019-03-22T09:23:12.150Z,65.50
2019-03-22T09:25:41.924Z,67.65
2019-03-22T09:28:11.663Z,63.85
2019-03-22T09:30:41.427Z,58.28
2019-03-22T09:33:13.383Z,54.03
2019-03-22T09:35:42.535Z,61.75
2019-03-22T09:38:13.338Z,52.43
2019-03-22T09:40:43.299Z,54.30
2019-03-22T09:43:13.018Z,50.28
2019-03-22T09:45:42.857Z,54.95
2019-03-22T09:48:12.757Z,48.13
2019-03-22T09:50:42.562Z,51.40
2019-03-22T09:53:12.402Z,50.90
2019-03-22T09:55:42.102Z,52.90
2019-03-22T09:58:11.905Z,61.68
2019-03-22T10:00:41.756Z,58.95
2019-03-22T10:03:12.538Z,47.17
2019-03-22T10:05:42.279Z,41.45
2019-03-22T10:08:12.251Z,45.80
2019-03-22T10:10:41.983Z,36.93
2019-03-22T10:13:11.702Z,34.83
2019-03-22T10:15:41.440Z,43.10
2019-03-22T10:18:11.179Z,43.20
2019-03-22T10:20:41.953Z,38.08
2019-03-22T10:23:11.754Z,33.80
2019-03-22T10:25:41.443Z,32.53
2019-03-22T10:28:11.245Z,30.43
2019-03-22T10:30:40.944Z,32.95
2019-03-22T10:33:22.069Z,33.00
2019-03-22T10:35:42.069Z,31.90
2019-03-22T10:38:16.421Z,34.48
2019-03-22T18:47:35.750Z,50.35
2019-03-22T18:50:07.875Z,62.62
2019-03-22T18:52:37.660Z,64.22
2019-03-22T18:55:08.595Z,62.80
2019-03-22T18:57:38.357Z,68.83
2019-03-22T19:00:18.659Z,93.40
2019-03-22T19:02:48.444Z,134.52
2019-03-22T19:05:18.182Z,204.68
2019-03-22T19:07:48.015Z,157.97
2019-03-22T19:10:17.863Z,152.07
2019-03-22T19:12:47.615Z,292.70
2019-03-22T19:15:17.406Z,232.05
2019-03-22T19:17:47.163Z,168.85
2019-03-22T19:20:17.126Z,82.22
2019-03-22T19:22:47.334Z,84.07
2019-03-22T19:25:17.051Z,105.85
2019-03-22T19:27:46.833Z,69.62
2019-03-22T19:30:17.671Z,57.83
2019-03-22T19:32:47.454Z,60.17
2019-03-22T19:35:17.194Z,55.08
2019-03-22T19:37:46.962Z,60.15
2019-03-22T19:40:17.008Z,62.75
2019-03-22T19:42:48.787Z,61.40
2019-03-22T19:45:18.556Z,64.40
2019-03-22T19:47:48.311Z,69.22
2019-03-22T19:50:18.147Z,77.82
2019-03-22T19:52:47.895Z,100.40
2019-03-22T19:55:17.682Z,103.85
2019-03-22T19:57:47.433Z,122.60
2019-03-22T20:00:19.023Z,120.02
2019-03-22T20:02:49.319Z,62.73
2019-03-22T20:05:34.934Z,58.52
2019-03-22T20:08:04.788Z,58.63
2019-03-22T20:10:34.533Z,62.77
2019-03-22T20:13:04.279Z,60.48
2019-03-22T20:15:35.018Z,55.25
2019-03-22T20:18:04.825Z,65.40
2019-03-22T20:20:36.235Z,59.27
2019-03-22T20:23:06.149Z,74.17
2019-03-22T20:25:35.895Z,73.15
2019-03-22T20:28:06.187Z,81.82
2019-03-22T20:30:35.927Z,92.53
2019-03-22T20:33:05.907Z,93.03
2019-03-22T20:35:35.661Z,101.27
2019-03-22T20:38:05.387Z,96.00
2019-03-22T20:40:35.130Z,91.15
2019-03-22T20:43:04.882Z,92.65
2019-03-22T20:45:34.695Z,91.63
2019-03-22T20:48:04.396Z,98.25
2019-03-22T20:50:35.962Z,105.72
2019-03-22T20:53:05.575Z,146.82
2019-03-22T20:55:35.370Z,160.37
2019-03-22T20:58:05.123Z,158.65
2019-03-22T21:00:34.911Z,162.40
2019-03-22T21:03:04.862Z,175.12
2019-03-22T21:05:34.610Z,184.70
2019-03-22T21:08:04.354Z,203.65
2019-03-22T21:10:34.082Z,194.85
2019-03-22T21:13:03.864Z,197.98
2019-03-22T21:15:33.700Z,190.40
2019-03-22T21:18:03.469Z,202.53
2019-03-22T21:20:33.318Z,203.00
2019-03-22T21:23:04.599Z,232.77
2019-03-22T21:25:34.502Z,213.52
2019-03-22T21:28:04.245Z,158.90
2019-03-22T21:30:34.558Z,139.67
2019-03-22T21:33:04.283Z,145.17
2019-03-22T21:35:37.608Z,136.27
2019-03-22T21:38:10.709Z,91.05
2019-03-22T21:40:37.944Z,96.72
2019-03-22T21:43:07.687Z,88.30
2019-03-22T21:45:37.431Z,97.37
2019-03-22T21:48:07.199Z,105.55
2019-03-22T21:50:36.862Z,120.60
2019-03-22T21:53:06.655Z,133.63
2019-03-22T21:55:36.702Z,144.63
2019-03-22T21:58:06.498Z,144.60
2019-03-22T22:00:36.240Z,146.77
2019-03-22T22:03:07.042Z,137.77
2019-03-22T22:05:47.268Z,140.95
2019-03-22T22:08:08.467Z,144.65
2019-03-22T22:10:38.264Z,143.05
2019-03-22T22:13:08.056Z,143.95
2019-03-22T22:15:37.805Z,148.93
2019-03-22T22:18:07.567Z,154.38
2019-03-22T22:20:37.322Z,172.65
2019-03-22T22:23:07.066Z,171.07
2019-03-22T22:25:36.854Z,171.90
2019-03-22T22:28:09.322Z,168.65
2019-03-22T22:30:39.114Z,161.60
2019-03-22T22:33:08.856Z,160.78
2019-03-22T22:35:38.610Z,161.32
2019-03-22T22:38:08.350Z,159.35
2019-03-22T22:40:38.086Z,151.68
2019-03-22T22:43:08.895Z,158.47
2019-03-22T22:45:38.658Z,147.78
2019-03-22T22:48:08.405Z,149.95
2019-03-22T22:50:38.227Z,144.28
2019-03-22T22:53:07.954Z,143.83
2019-03-22T22:55:38.493Z,133.40
2019-03-22T22:58:08.285Z,132.87
2019-03-22T23:00:38.031Z,133.35
2019-03-22T23:03:07.775Z,146.80
2019-03-22T23:05:37.556Z,140.12
2019-03-22T23:08:07.298Z,143.68
2019-03-22T23:10:37.026Z,138.07
2019-03-22T23:13:06.818Z,135.12
2019-03-22T23:15:36.559Z,137.82
2019-03-22T23:18:06.307Z,139.95
2019-03-22T23:20:36.059Z,131.43
2019-03-22T23:23:05.847Z,135.50
2019-03-22T23:25:35.596Z,137.05
2019-03-22T23:28:05.335Z,132.90
2019-03-22T23:30:35.080Z,131.60
2019-03-22T23:33:04.823Z,129.35
2019-03-22T23:35:35.014Z,136.88
2019-03-22T23:38:04.756Z,131.57
2019-03-22T23:40:34.506Z,131.35
2019-03-22T23:43:04.255Z,130.32
2019-03-22T23:45:34.057Z,140.03
2019-03-22T23:48:03.769Z,133.63
2019-03-22T23:50:33.514Z,130.75
2019-03-22T23:53:03.265Z,133.25
2019-03-22T23:55:33.053Z,134.97
2019-03-22T23:58:02.797Z,138.92
